createdAt,value
2018-11-06T00:00:27.838Z,24.87
2018-11-06T00:03:01.274Z,22.65
2018-11-06T00:05:29.001Z,23.32
2018-11-06T00:07:56.717Z,21.75
2018-11-06T00:10:24.530Z,26.23
2018-11-06T00:12:52.265Z,25.10
2018-11-06T00:15:20.030Z,23.18
2018-11-06T00:17:47.824Z,21.93
2018-11-06T00:20:15.595Z,22.62
2018-11-06T00:22:43.655Z,22.75
2018-11-06T00:25:12.921Z,22.75
2018-11-06T00:27:40.952Z,24.07
2018-11-06T00:30:10.492Z,22.55
2018-11-06T00:32:38.749Z,24.18
2018-11-06T00:35:07.837Z,22.42
2018-11-06T00:37:35.589Z,21.85
2018-11-06T00:40:03.317Z,22.65
2018-11-06T00:42:31.024Z,22.27
2018-11-06T00:44:58.795Z,25.85
2018-11-06T00:47:26.535Z,21.25
2018-11-06T00:49:54.218Z,20.92
2018-11-06T00:52:22.006Z,24.90
2018-11-06T00:54:49.788Z,23.85
2018-11-06T00:57:17.530Z,23.92
2018-11-06T00:59:45.216Z,22.67
2018-11-06T01:02:12.964Z,24.07
2018-11-06T01:04:40.673Z,23.18
2018-11-06T01:07:08.393Z,22.77
2018-11-06T01:09:36.110Z,21.25
2018-11-06T01:12:04.312Z,23.42
2018-11-06T01:14:32.049Z,25.10
2018-11-06T01:16:59.802Z,23.62
2018-11-06T01:19:27.556Z,25.00
2018-11-06T01:21:55.252Z,22.65
2018-11-06T01:24:23.017Z,24.75
2018-11-06T01:26:50.733Z,25.27
2018-11-06T01:29:18.440Z,23.75
2018-11-06T01:31:46.193Z,23.45
2018-11-06T01:34:14.064Z,26.23
2018-11-06T01:36:41.776Z,24.40
2018-11-06T01:39:10.142Z,24.52
2018-11-06T01:41:37.867Z,22.50
2018-11-06T01:44:05.652Z,25.02
2018-11-06T01:46:33.442Z,23.83
2018-11-06T01:49:01.220Z,23.95
2018-11-06T01:51:28.924Z,24.55
2018-11-06T01:53:56.698Z,22.62
2018-11-06T01:56:24.412Z,23.95
2018-11-06T01:58:52.146Z,21.52
2018-11-06T02:01:19.846Z,22.40
2018-11-06T02:03:47.605Z,23.73
2018-11-06T02:06:15.326Z,21.75
2018-11-06T02:08:43.049Z,22.73
2018-11-06T02:11:10.761Z,22.15
2018-11-06T02:13:38.454Z,19.52
2018-11-06T02:16:06.732Z,21.77
2018-11-06T02:18:34.433Z,19.37
2018-11-06T02:21:02.136Z,19.50
2018-11-06T02:23:29.842Z,22.05
2018-11-06T02:25:57.558Z,23.22
2018-11-06T02:28:25.236Z,20.17
2018-11-06T02:30:52.960Z,19.12
2018-11-06T02:33:20.685Z,21.27
2018-11-06T02:35:48.492Z,18.95
2018-11-06T02:38:16.221Z,20.75
2018-11-06T02:40:43.911Z,21.57
2018-11-06T02:43:11.651Z,21.20
2018-11-06T02:45:39.340Z,20.10
2018-11-06T02:48:07.073Z,20.62
2018-11-06T02:50:34.773Z,21.20
2018-11-06T02:53:02.496Z,20.00
2018-11-06T02:55:30.234Z,21.15
2018-11-06T02:57:57.965Z,20.05
2018-11-06T03:00:25.645Z,19.17
2018-11-06T03:02:53.368Z,18.90
2018-11-06T03:05:21.057Z,19.17
2018-11-06T03:07:48.777Z,19.20
2018-11-06T03:10:16.551Z,18.80
2018-11-06T03:12:44.685Z,17.65
2018-11-06T03:15:13.239Z,19.35
2018-11-06T03:17:41.029Z,20.72
2018-11-06T03:20:09.909Z,22.65
2018-11-06T03:22:37.678Z,18.50
2018-11-06T03:25:05.995Z,20.60
2018-11-06T03:27:33.797Z,20.90
2018-11-06T03:30:01.618Z,19.82
2018-11-06T03:32:29.348Z,18.50
2018-11-06T03:34:57.138Z,20.00
2018-11-06T03:37:24.808Z,19.52
2018-11-06T03:39:52.569Z,19.87
2018-11-06T03:42:20.425Z,19.82
2018-11-06T03:44:48.129Z,19.00
2018-11-06T03:47:15.877Z,21.05
2018-11-06T03:49:43.557Z,20.97
2018-11-06T03:52:11.249Z,18.27
2018-11-06T03:54:38.993Z,20.45
2018-11-06T03:57:06.750Z,20.75
2018-11-06T03:59:34.486Z,20.77
2018-11-06T04:02:02.237Z,21.12
2018-11-06T04:04:29.981Z,19.42
2018-11-06T04:06:57.697Z,20.20
2018-11-06T04:09:25.402Z,18.30
2018-11-06T04:11:53.125Z,17.95
2018-11-06T04:14:20.808Z,20.72
2018-11-06T04:16:48.532Z,21.30
2018-11-06T04:19:16.224Z,19.95
2018-11-06T04:21:43.923Z,19.98
2018-11-06T04:24:13.021Z,18.20
2018-11-06T04:26:40.759Z,20.43
2018-11-06T04:29:09.057Z,18.42
2018-11-06T04:31:37.560Z,18.95
2018-11-06T04:34:05.513Z,19.55
2018-11-06T04:36:33.255Z,17.87
2018-11-06T04:39:00.953Z,17.48
2018-11-06T04:41:28.660Z,19.62
2018-11-06T04:43:56.349Z,17.80
2018-11-06T04:46:24.364Z,19.02
2018-11-06T04:48:52.410Z,17.77
2018-11-06T04:51:20.617Z,18.55
2018-11-06T04:53:48.283Z,19.00
2018-11-06T04:56:16.013Z,18.00
2018-11-06T04:58:43.742Z,18.07
2018-11-06T05:01:11.472Z,18.55
2018-11-06T05:03:44.900Z,18.02
2018-11-06T05:06:12.661Z,17.95
2018-11-06T05:08:40.345Z,17.62
2018-11-06T05:11:08.047Z,19.85
2018-11-06T05:13:35.804Z,18.15
2018-11-06T05:16:03.789Z,17.00
2018-11-06T05:18:31.510Z,17.98
2018-11-06T05:20:59.201Z,18.73
2018-11-06T05:23:26.901Z,17.17
2018-11-06T05:25:54.638Z,17.67
2018-11-06T05:28:22.358Z,16.10
2018-11-06T05:30:50.072Z,18.00
2018-11-06T05:33:17.752Z,14.95
2018-11-06T05:35:45.457Z,17.10
2018-11-06T05:38:13.134Z,18.73
2018-11-06T05:40:51.900Z,18.67
2018-11-06T05:43:19.597Z,16.25
2018-11-06T05:45:47.341Z,18.05
2018-11-06T05:48:15.046Z,19.48
2018-11-06T05:50:42.800Z,19.17
2018-11-06T05:53:10.589Z,18.02
2018-11-06T05:55:38.291Z,15.83
2018-11-06T05:58:05.992Z,16.60
2018-11-06T06:00:33.793Z,17.10
2018-11-06T06:03:01.493Z,16.30
2018-11-06T06:05:29.178Z,15.60
2018-11-06T06:07:56.942Z,18.35
2018-11-06T06:10:24.629Z,15.72
2018-11-06T06:12:52.329Z,15.43
2018-11-06T06:15:20.025Z,16.97
2018-11-06T06:17:47.734Z,17.27
2018-11-06T06:20:15.433Z,18.00
2018-11-06T06:22:43.189Z,17.27
2018-11-06T06:25:10.877Z,16.90
2018-11-06T06:27:38.592Z,15.18
2018-11-06T06:30:08.881Z,17.85
2018-11-06T06:32:36.629Z,16.90
2018-11-06T06:35:04.528Z,17.05
2018-11-06T06:37:32.181Z,15.68
2018-11-06T06:39:59.895Z,16.90
2018-11-06T06:42:27.713Z,16.57
2018-11-06T06:44:55.438Z,17.23
2018-11-06T06:47:23.138Z,18.95
2018-11-06T06:49:50.844Z,16.60
2018-11-06T06:52:18.628Z,17.85
2018-11-06T06:54:46.315Z,16.62
2018-11-06T06:57:14.036Z,17.65
2018-11-06T06:59:42.073Z,16.70
2018-11-06T07:02:09.809Z,15.80
2018-11-06T07:04:37.503Z,19.12
2018-11-06T07:07:05.534Z,16.40
2018-11-06T07:09:33.841Z,17.05
2018-11-06T07:12:01.569Z,17.37
2018-11-06T07:14:29.288Z,18.25
2018-11-06T07:16:57.021Z,17.48
2018-11-06T07:19:24.767Z,17.52
2018-11-06T07:21:52.510Z,17.25
2018-11-06T07:24:20.228Z,15.93
2018-11-06T07:26:47.997Z,16.87
2018-11-06T07:29:15.703Z,17.10
2018-11-06T07:31:43.380Z,16.97
2018-11-06T07:34:11.096Z,18.17
2018-11-06T07:36:38.825Z,16.85
2018-11-06T07:39:08.693Z,18.12
2018-11-06T07:41:36.836Z,16.97
2018-11-06T07:44:04.597Z,17.17
2018-11-06T07:46:32.300Z,15.48
2018-11-06T07:49:00.005Z,15.80
2018-11-06T07:51:27.701Z,16.77
2018-11-06T07:53:55.433Z,17.40
2018-11-06T07:56:23.210Z,15.53
2018-11-06T07:58:50.883Z,17.67
2018-11-06T08:01:18.640Z,17.47
2018-11-06T08:03:46.353Z,18.53
2018-11-06T08:06:14.106Z,18.00
2018-11-06T08:08:41.781Z,17.47
2018-11-06T08:11:09.533Z,16.27
2018-11-06T08:13:37.340Z,16.10
2018-11-06T08:16:05.224Z,15.67
2018-11-06T08:18:32.949Z,17.00
2018-11-06T08:21:00.646Z,16.33
2018-11-06T08:23:28.395Z,13.33
2018-11-06T08:25:56.117Z,15.67
2018-11-06T08:28:23.822Z,13.83
2018-11-06T08:30:51.693Z,12.63
2018-11-06T08:33:19.225Z,12.60
2018-11-06T08:35:46.951Z,13.10
2018-11-06T08:38:14.641Z,13.00
2018-11-06T08:40:42.374Z,12.90
2018-11-06T08:43:10.072Z,16.07
2018-11-06T08:45:37.793Z,15.73
2018-11-06T08:48:05.651Z,14.37
2018-11-06T08:50:33.377Z,15.03
2018-11-06T08:53:01.092Z,13.07
2018-11-06T08:55:28.805Z,14.37
2018-11-06T08:57:56.513Z,14.93
2018-11-06T09:00:24.223Z,13.30
2018-11-06T09:02:51.925Z,12.97
2018-11-06T09:05:19.781Z,12.33
2018-11-06T09:07:47.477Z,14.23
2018-11-06T09:10:15.857Z,14.00
2018-11-06T09:12:43.590Z,13.97
2018-11-06T09:15:12.820Z,13.17
2018-11-06T09:17:40.545Z,13.77
2018-11-06T09:20:09.582Z,15.63
2018-11-06T09:22:37.296Z,14.20
2018-11-06T09:25:06.454Z,24.13
2018-11-06T09:27:34.189Z,33.87
2018-11-06T09:30:01.929Z,15.37
2018-11-06T09:32:29.604Z,16.33
2018-11-06T09:34:57.300Z,13.00
2018-11-06T09:37:25.009Z,13.23
2018-11-06T09:39:52.710Z,14.70
2018-11-06T09:42:20.430Z,13.10
2018-11-06T09:44:48.176Z,11.97
2018-11-06T09:47:15.901Z,12.77
2018-11-06T09:49:43.600Z,12.90
2018-11-06T09:52:11.336Z,11.20
2018-11-06T09:54:39.068Z,12.50
2018-11-06T09:57:06.815Z,12.50
2018-11-06T09:59:34.506Z,12.20
2018-11-06T10:02:02.261Z,13.73
2018-11-06T10:04:29.994Z,15.37
2018-11-06T10:06:58.034Z,12.30
2018-11-06T10:09:25.497Z,13.20
2018-11-06T10:11:53.229Z,14.07
2018-11-06T10:14:20.941Z,13.37
2018-11-06T10:16:48.653Z,14.33
2018-11-06T10:19:16.344Z,13.77
2018-11-06T10:21:44.081Z,13.90
2018-11-06T10:24:11.817Z,13.00
2018-11-06T10:26:39.601Z,12.20
2018-11-06T10:29:07.388Z,10.97
2018-11-06T10:31:35.983Z,12.00
2018-11-06T10:34:03.881Z,11.70
2018-11-06T10:36:31.601Z,11.80
2018-11-06T10:38:59.350Z,12.70
2018-11-06T10:41:27.118Z,12.37
2018-11-06T10:43:54.847Z,33.40
2018-11-06T10:46:22.572Z,31.67
2018-11-06T10:48:50.330Z,22.47
2018-11-06T10:51:18.061Z,11.43
2018-11-06T10:53:45.798Z,10.83
2018-11-06T10:56:13.562Z,11.83
2018-11-06T10:58:41.277Z,11.43
2018-11-06T11:01:14.517Z,11.57
2018-11-06T11:04:47.938Z,11.83
2018-11-06T11:07:15.693Z,11.07
2018-11-06T11:09:43.433Z,11.00
2018-11-06T11:12:11.217Z,12.10
2018-11-06T11:14:38.944Z,10.80
2018-11-06T11:17:06.650Z,10.63
2018-11-06T11:19:34.423Z,12.27
2018-11-06T11:22:02.214Z,11.27
2018-11-06T11:24:29.948Z,11.80
2018-11-06T11:26:57.695Z,11.93
2018-11-06T11:29:25.463Z,10.33
2018-11-06T11:31:53.208Z,12.50
2018-11-06T11:34:20.942Z,10.73
2018-11-06T11:36:48.841Z,11.40
2018-11-06T11:39:16.632Z,11.40
2018-11-06T11:41:44.349Z,10.30
2018-11-06T11:44:12.064Z,11.80
2018-11-06T11:46:39.781Z,9.67
2018-11-06T11:49:07.510Z,10.03
2018-11-06T11:51:35.244Z,10.80
2018-11-06T11:54:02.969Z,11.70
2018-11-06T11:56:30.717Z,11.20
2018-11-06T11:58:58.416Z,10.30
2018-11-06T12:01:26.150Z,10.50
2018-11-06T12:03:53.862Z,9.00
2018-11-06T12:06:21.590Z,9.00
2018-11-06T12:08:49.296Z,9.10
2018-11-06T12:11:17.021Z,10.07
2018-11-06T12:13:44.732Z,10.20
2018-11-06T12:16:12.437Z,9.10
2018-11-06T12:18:40.169Z,9.40
2018-11-06T12:21:07.935Z,8.63
2018-11-06T12:23:35.648Z,10.13
2018-11-06T12:26:03.397Z,8.83
2018-11-06T12:28:31.096Z,8.90
2018-11-06T12:30:58.842Z,9.97
2018-11-06T12:33:26.563Z,10.13
2018-11-06T12:35:54.329Z,8.97
2018-11-06T12:38:22.146Z,10.53
2018-11-06T12:40:49.875Z,8.73
2018-11-06T12:43:17.606Z,8.57
2018-11-06T12:45:45.333Z,9.07
2018-11-06T12:48:13.022Z,8.30
2018-11-06T12:50:40.793Z,8.60
2018-11-06T12:53:08.494Z,8.40
2018-11-06T12:55:36.239Z,8.33
2018-11-06T12:58:03.974Z,7.90
2018-11-06T13:00:31.718Z,8.23
2018-11-06T13:02:59.441Z,7.70
2018-11-06T13:05:27.158Z,7.27
2018-11-06T13:07:54.857Z,8.30
2018-11-06T13:10:22.591Z,7.60
2018-11-06T13:12:50.341Z,8.30
2018-11-06T13:15:19.619Z,7.60
2018-11-06T13:17:45.838Z,8.30
2018-11-06T13:20:14.757Z,7.70
2018-11-06T13:22:43.220Z,8.40
2018-11-06T13:25:10.964Z,8.00
2018-11-06T13:27:39.666Z,7.33
2018-11-06T13:30:15.396Z,7.93
2018-11-06T13:32:43.901Z,7.40
2018-11-06T13:35:11.808Z,7.33
2018-11-06T13:37:39.509Z,7.90
2018-11-06T13:40:09.417Z,7.60
2018-11-06T13:42:37.505Z,6.77
2018-11-06T13:45:07.037Z,7.20
2018-11-06T13:47:34.735Z,7.33
2018-11-06T13:50:02.521Z,8.50
2018-11-06T13:52:30.233Z,6.07
2018-11-06T13:54:57.965Z,6.97
2018-11-06T13:57:25.657Z,6.80
2018-11-06T13:59:53.374Z,9.03
2018-11-06T14:02:21.109Z,9.03
2018-11-06T14:04:49.277Z,7.73
2018-11-06T14:07:16.997Z,7.50
2018-11-06T14:09:44.705Z,6.17
2018-11-06T14:12:12.418Z,8.93
2018-11-06T14:14:40.158Z,8.40
2018-11-06T14:17:07.851Z,8.27
2018-11-06T14:19:35.567Z,9.07
2018-11-06T14:22:03.278Z,7.53
2018-11-06T14:24:31.006Z,8.67
2018-11-06T14:26:58.721Z,7.20
2018-11-06T14:29:26.475Z,7.00
2018-11-06T14:31:54.240Z,7.63
2018-11-06T14:34:21.916Z,9.30
2018-11-06T14:36:49.742Z,8.10
2018-11-06T14:39:17.441Z,10.00
2018-11-06T14:41:45.185Z,10.50
2018-11-06T14:44:12.872Z,9.17
2018-11-06T14:46:40.602Z,9.13
2018-11-06T14:49:08.364Z,7.40
2018-11-06T14:51:36.074Z,7.87
2018-11-06T14:54:03.825Z,7.20
2018-11-06T14:56:31.533Z,10.00
2018-11-06T14:58:59.246Z,8.37
2018-11-06T15:01:27.019Z,7.67
2018-11-06T15:03:54.997Z,8.93
2018-11-06T15:06:22.725Z,9.67
2018-11-06T15:08:50.463Z,7.93
2018-11-06T15:11:18.179Z,8.07
2018-11-06T15:13:45.898Z,8.90
2018-11-06T15:16:13.633Z,10.40
2018-11-06T15:18:41.331Z,9.57
2018-11-06T15:21:09.102Z,8.97
2018-11-06T15:23:36.901Z,8.57
2018-11-06T15:26:04.945Z,9.90
2018-11-06T15:28:32.677Z,10.17
2018-11-06T15:31:00.397Z,10.67
2018-11-06T15:33:28.106Z,10.47
2018-11-06T15:35:55.883Z,12.47
2018-11-06T15:38:23.717Z,9.67
2018-11-06T15:40:51.486Z,10.20
2018-11-06T15:43:19.194Z,9.50
2018-11-06T15:45:46.942Z,10.23
2018-11-06T15:48:14.698Z,9.27
2018-11-06T15:50:42.460Z,9.27
2018-11-06T15:53:10.164Z,10.77
2018-11-06T15:55:37.911Z,8.73
2018-11-06T15:58:05.633Z,7.20
2018-11-06T16:00:33.401Z,10.37
2018-11-06T16:03:01.113Z,9.63
2018-11-06T16:05:28.857Z,10.67
2018-11-06T16:07:56.566Z,8.93
2018-11-06T16:10:24.306Z,10.00
2018-11-06T16:12:52.083Z,10.47
2018-11-06T16:15:19.859Z,9.37
2018-11-06T16:17:47.630Z,9.77
2018-11-06T16:20:16.709Z,9.77
2018-11-06T16:22:44.625Z,8.30
2018-11-06T16:25:13.606Z,10.10
2018-11-06T16:27:41.776Z,8.77
2018-11-06T16:30:11.863Z,8.53
2018-11-06T16:32:39.612Z,8.60
2018-11-06T16:35:09.232Z,9.87
2018-11-06T16:37:37.326Z,9.57
2018-11-06T16:40:05.528Z,11.77
2018-11-06T16:42:33.233Z,9.90
2018-11-06T16:45:01.244Z,10.80
2018-11-06T16:47:28.961Z,9.73
2018-11-06T16:49:56.721Z,10.23
2018-11-06T16:52:24.437Z,15.03
2018-11-06T16:54:52.147Z,15.40
2018-11-06T16:57:19.882Z,13.10
2018-11-06T16:59:47.613Z,12.57
2018-11-06T17:02:15.339Z,12.20
2018-11-06T17:04:43.081Z,12.80
2018-11-06T17:07:10.879Z,11.73
2018-11-06T17:09:38.622Z,12.07
2018-11-06T17:12:06.322Z,10.70
2018-11-06T17:14:34.035Z,15.30
2018-11-06T17:17:01.776Z,14.30
2018-11-06T17:19:29.524Z,14.93
2018-11-06T17:21:57.254Z,17.17
2018-11-06T17:24:24.998Z,11.93
2018-11-06T17:26:52.720Z,15.20
2018-11-06T17:29:20.421Z,15.50
2018-11-06T17:31:48.156Z,13.23
2018-11-06T17:34:15.914Z,14.83
2018-11-06T17:36:43.646Z,13.17
2018-11-06T17:39:12.654Z,12.20
2018-11-06T17:41:40.393Z,9.93
2018-11-06T17:44:08.124Z,10.10
2018-11-06T17:46:35.849Z,10.67
2018-11-06T17:49:03.822Z,11.27
2018-11-06T17:51:31.555Z,10.80
2018-11-06T17:53:59.287Z,10.30
2018-11-06T17:56:26.993Z,11.27
2018-11-06T17:58:54.741Z,10.53
2018-11-06T18:01:22.549Z,10.00
2018-11-06T18:03:50.333Z,10.30
2018-11-06T18:06:18.048Z,10.90
2018-11-06T18:08:45.878Z,11.33
2018-11-06T18:11:13.621Z,9.70
2018-11-06T18:13:41.385Z,9.33
2018-11-06T18:16:09.133Z,10.47
2018-11-06T18:18:36.838Z,10.47
2018-11-06T18:21:04.807Z,10.40
2018-11-06T18:23:32.526Z,11.10
2018-11-06T18:26:00.267Z,11.10
2018-11-06T18:28:28.078Z,10.83
2018-11-06T18:30:55.769Z,12.27
2018-11-06T18:33:23.489Z,11.73
2018-11-06T18:35:51.224Z,9.87
2018-11-06T18:38:18.967Z,11.33
2018-11-06T18:40:46.702Z,11.30
2018-11-06T18:43:14.426Z,11.13
2018-11-06T18:45:42.137Z,13.20
2018-11-06T18:48:09.846Z,11.47
2018-11-06T18:50:37.520Z,11.37
2018-11-06T18:53:05.408Z,12.03
2018-11-06T18:55:33.158Z,12.20
2018-11-06T18:58:00.953Z,12.67
2018-11-06T19:00:28.645Z,13.50
2018-11-06T19:02:56.406Z,11.57
2018-11-06T19:05:24.636Z,13.30
2018-11-06T19:07:52.390Z,12.90
2018-11-06T19:10:20.158Z,13.23
2018-11-06T19:12:47.902Z,11.73
2018-11-06T19:15:17.848Z,12.33
2018-11-06T19:17:46.133Z,12.37
2018-11-06T19:20:14.389Z,13.50
2018-11-06T19:22:42.172Z,13.75
2018-11-06T19:25:10.660Z,12.80
2018-11-06T19:27:38.605Z,12.03
2018-11-06T19:30:08.307Z,12.60
2018-11-06T19:32:36.288Z,11.93
2018-11-06T19:35:04.128Z,13.22
2018-11-06T19:37:31.869Z,12.57
2018-11-06T19:39:59.720Z,13.83
2018-11-06T19:42:27.562Z,11.30
2018-11-06T19:44:55.322Z,12.77
2018-11-06T19:47:23.160Z,12.00
2018-11-06T19:49:50.941Z,13.03
2018-11-06T19:52:18.725Z,11.55
2018-11-06T19:54:46.521Z,12.80
2018-11-06T19:57:14.305Z,12.47
2018-11-06T19:59:42.109Z,11.80
2018-11-06T20:02:09.918Z,12.80
2018-11-06T20:04:37.731Z,12.05
2018-11-06T20:07:05.513Z,12.27
2018-11-06T20:09:33.309Z,11.00
2018-11-06T20:12:01.151Z,12.30
2018-11-06T20:14:28.797Z,12.70
2018-11-06T20:16:56.557Z,11.97
2018-11-06T20:19:24.317Z,12.50
2018-11-06T20:21:52.064Z,11.77
2018-11-06T20:24:19.813Z,12.40
2018-11-06T20:26:47.536Z,11.00
2018-11-06T20:29:15.303Z,11.93
2018-11-06T20:31:43.064Z,12.93
2018-11-06T20:34:10.817Z,12.43
2018-11-06T20:36:38.536Z,11.90
2018-11-06T20:39:07.653Z,11.20
2018-11-06T20:41:35.450Z,11.80
2018-11-06T20:44:03.253Z,11.70
2018-11-06T20:46:31.699Z,11.50
2018-11-06T20:48:59.521Z,12.77
2018-11-06T20:51:27.224Z,15.20
2018-11-06T20:53:54.989Z,11.57
2018-11-06T20:56:22.731Z,12.40
2018-11-06T20:58:50.549Z,12.10
2018-11-06T21:01:18.350Z,13.37
2018-11-06T21:03:46.117Z,14.50
2018-11-06T21:06:13.882Z,11.33
2018-11-06T21:08:41.635Z,11.40
2018-11-06T21:11:09.398Z,13.33
2018-11-06T21:13:37.151Z,13.28
2018-11-06T21:16:05.813Z,12.67
2018-11-06T21:18:33.626Z,13.03
2018-11-06T21:21:01.391Z,13.40
2018-11-06T21:23:29.185Z,13.60
2018-11-06T21:25:57.152Z,13.90
2018-11-06T21:28:24.699Z,15.23
2018-11-06T21:30:52.454Z,18.07
2018-11-06T21:33:21.056Z,14.10
2018-11-06T21:35:48.786Z,11.23
2018-11-06T21:38:16.537Z,13.13
2018-11-06T21:40:44.286Z,13.53
2018-11-06T21:43:12.021Z,15.30
2018-11-06T21:45:39.828Z,14.10
2018-11-06T21:48:07.521Z,13.40
2018-11-06T21:50:35.335Z,12.23
2018-11-06T21:53:03.075Z,14.10
2018-11-06T21:55:30.863Z,12.50
2018-11-06T21:57:58.598Z,13.10
2018-11-06T22:00:26.468Z,13.63
2018-11-06T22:02:54.188Z,15.75
2018-11-06T22:05:21.952Z,15.20
2018-11-06T22:07:49.705Z,14.28
2018-11-06T22:10:18.766Z,11.50
2018-11-06T22:12:46.742Z,14.18
2018-11-06T22:15:15.739Z,12.43
2018-11-06T22:17:43.444Z,12.00
2018-11-06T22:20:12.699Z,14.17
2018-11-06T22:22:41.104Z,11.63
2018-11-06T22:25:08.848Z,12.40
2018-11-06T22:27:36.869Z,11.73
2018-11-06T22:30:06.237Z,12.93
2018-11-06T22:32:34.056Z,12.60
2018-11-06T22:35:01.773Z,12.73
2018-11-06T22:37:29.595Z,10.55
2018-11-06T22:39:57.241Z,11.80
2018-11-06T22:42:25.299Z,13.20
2018-11-06T22:44:53.035Z,12.67
2018-11-06T22:47:20.789Z,13.27
2018-11-06T22:49:48.510Z,11.97
2018-11-06T22:52:16.273Z,13.50
2018-11-06T22:54:43.996Z,10.80
2018-11-06T22:57:11.786Z,12.93
2018-11-06T22:59:39.551Z,14.28
2018-11-06T23:02:10.219Z,14.35
2018-11-06T23:04:38.001Z,12.90
2018-11-06T23:07:06.005Z,12.45
2018-11-06T23:09:33.628Z,13.68
2018-11-06T23:12:01.371Z,15.08
2018-11-06T23:14:29.142Z,13.03
2018-11-06T23:16:56.881Z,16.62
2018-11-06T23:19:24.600Z,15.78
2018-11-06T23:21:52.345Z,14.78
2018-11-06T23:24:20.069Z,14.43
2018-11-06T23:26:47.810Z,12.28
2018-11-06T23:29:15.560Z,15.40
2018-11-06T23:31:43.351Z,13.50
2018-11-06T23:34:11.241Z,12.90
2018-11-06T23:36:38.985Z,10.98
2018-11-06T23:39:07.234Z,13.10
2018-11-06T23:41:35.090Z,12.58
2018-11-06T23:44:02.866Z,11.57
2018-11-06T23:46:30.618Z,12.45
2018-11-06T23:48:58.321Z,12.03
2018-11-06T23:51:26.069Z,13.32
2018-11-06T23:53:53.777Z,12.00
2018-11-06T23:56:21.546Z,12.73
2018-11-06T23:58:49.233Z,11.20
